createdAt,value
2023-06-06T00:00:10.829Z,16.35
2023-06-06T00:02:42.247Z,16.33
2023-06-06T00:05:12.623Z,16.26
2023-06-06T00:07:41.473Z,16.23
2023-06-06T00:10:10.884Z,16.26
2023-06-06T00:12:42.424Z,16.20
2023-06-06T00:15:11.899Z,16.16
2023-06-06T00:17:40.013Z,16.05
2023-06-06T00:20:09.320Z,16.09
2023-06-06T00:22:37.794Z,16.08
2023-06-06T00:25:07.296Z,16.10
2023-06-06T00:27:36.777Z,16.04
2023-06-06T00:30:07.340Z,16.01
2023-06-06T00:32:35.317Z,15.98
2023-06-06T00:35:04.303Z,16.00
2023-06-06T00:37:32.342Z,15.98
2023-06-06T00:40:00.350Z,15.97
2023-06-06T00:42:28.289Z,15.85
2023-06-06T00:44:56.271Z,15.90
2023-06-06T00:47:26.293Z,15.90
2023-06-06T00:49:55.143Z,15.88
2023-06-06T00:52:23.517Z,15.87
2023-06-06T00:54:52.370Z,15.83
2023-06-06T00:57:21.403Z,15.82
2023-06-06T00:59:49.562Z,15.77
2023-06-06T01:02:20.109Z,15.73
2023-06-06T01:04:49.893Z,15.75
2023-06-06T01:07:18.788Z,15.73
2023-06-06T01:09:48.397Z,15.64
2023-06-06T01:12:26.079Z,15.66
2023-06-06T01:15:02.461Z,15.58
2023-06-06T01:17:35.046Z,15.63
2023-06-06T01:20:07.496Z,15.53
2023-06-06T01:22:43.980Z,15.44
2023-06-06T01:25:13.716Z,15.47
2023-06-06T01:27:41.745Z,15.43
2023-06-06T01:30:10.456Z,15.43
2023-06-06T01:32:57.174Z,15.39
2023-06-06T01:35:31.542Z,15.38
2023-06-06T01:38:09.386Z,15.30
2023-06-06T01:40:39.502Z,15.19
2023-06-06T01:43:09.696Z,15.24
2023-06-06T01:45:40.590Z,15.20
2023-06-06T01:48:09.004Z,15.22
2023-06-06T01:50:37.783Z,15.21
2023-06-06T01:53:07.121Z,15.23
2023-06-06T01:55:37.978Z,15.19
2023-06-06T01:58:06.874Z,15.23
2023-06-06T02:00:34.952Z,15.26
2023-06-06T02:03:03.710Z,15.24
2023-06-06T02:05:31.728Z,15.23
2023-06-06T02:08:00.445Z,15.35
2023-06-06T02:10:29.802Z,15.36
2023-06-06T02:12:57.728Z,15.30
2023-06-06T02:15:27.739Z,15.21
2023-06-06T02:17:55.945Z,15.17
2023-06-06T02:20:24.064Z,15.13
2023-06-06T02:22:53.693Z,15.22
2023-06-06T02:25:25.235Z,15.14
2023-06-06T02:27:55.318Z,15.19
2023-06-06T02:30:24.104Z,15.26
2023-06-06T02:32:52.197Z,15.22
2023-06-06T02:35:20.876Z,15.17
2023-06-06T02:37:48.844Z,15.14
2023-06-06T02:40:16.799Z,15.08
2023-06-06T02:42:45.024Z,15.04
2023-06-06T02:45:14.502Z,14.88
2023-06-06T02:47:42.476Z,14.83
2023-06-06T02:50:11.873Z,14.75
2023-06-06T02:52:42.446Z,14.61
2023-06-06T02:55:10.927Z,14.54
2023-06-06T02:57:38.937Z,14.44
2023-06-06T03:00:09.995Z,14.42
2023-06-06T03:02:39.678Z,14.32
2023-06-06T03:05:08.424Z,14.28
2023-06-06T03:07:38.454Z,14.32
2023-06-06T03:10:07.272Z,14.31
2023-06-06T03:12:35.205Z,14.19
2023-06-06T03:15:03.327Z,14.22
2023-06-06T03:17:31.394Z,14.22
2023-06-06T03:20:00.737Z,14.19
2023-06-06T03:22:29.776Z,14.17
2023-06-06T03:24:58.643Z,14.12
2023-06-06T03:27:27.862Z,14.19
2023-06-06T03:29:57.096Z,14.10
2023-06-06T03:32:25.126Z,14.13
2023-06-06T03:34:53.061Z,14.14
2023-06-06T03:37:22.420Z,14.08
2023-06-06T03:39:50.372Z,14.16
2023-06-06T03:42:18.338Z,14.23
2023-06-06T03:44:46.301Z,14.26
2023-06-06T03:47:14.260Z,14.23
2023-06-06T03:49:42.535Z,14.28
2023-06-06T03:52:11.711Z,14.22
2023-06-06T03:54:42.320Z,14.34
2023-06-06T03:57:11.786Z,14.30
2023-06-06T03:59:40.399Z,14.52
2023-06-06T04:02:08.463Z,14.59
2023-06-06T04:04:38.150Z,14.78
2023-06-06T04:07:22.088Z,14.96
2023-06-06T04:09:52.252Z,14.96
2023-06-06T04:12:20.177Z,15.13
2023-06-06T04:14:48.780Z,15.22
2023-06-06T04:17:16.799Z,15.23
2023-06-06T04:19:44.741Z,15.25
2023-06-06T04:22:12.618Z,15.34
2023-06-06T04:24:40.690Z,15.34
2023-06-06T04:27:10.722Z,15.37
2023-06-06T04:29:42.184Z,15.41
2023-06-06T04:32:10.780Z,15.52
2023-06-06T04:34:42.493Z,15.52
2023-06-06T04:37:10.729Z,15.54
2023-06-06T04:39:41.059Z,15.52
2023-06-06T04:42:10.741Z,15.49
2023-06-06T04:44:42.736Z,15.66
2023-06-06T04:47:12.153Z,15.75
2023-06-06T04:49:41.749Z,15.84
2023-06-06T04:52:11.606Z,15.77
2023-06-06T04:54:40.634Z,15.93
2023-06-06T04:57:16.441Z,16.14
2023-06-06T04:59:52.283Z,16.08
2023-06-06T05:02:23.101Z,16.13
2023-06-06T05:04:53.897Z,16.00
2023-06-06T05:07:25.070Z,16.04
2023-06-06T05:09:53.534Z,16.02
2023-06-06T05:12:23.479Z,16.14
2023-06-06T05:14:51.575Z,16.19
2023-06-06T05:17:21.850Z,16.14
2023-06-06T05:19:50.266Z,16.14
2023-06-06T05:22:18.430Z,16.22
2023-06-06T05:24:46.800Z,16.24
2023-06-06T05:27:14.881Z,16.22
2023-06-06T05:29:44.894Z,16.43
2023-06-06T05:32:14.576Z,16.32
2023-06-06T05:34:42.691Z,16.41
2023-06-06T05:37:10.722Z,16.51
2023-06-06T05:39:38.789Z,16.59
2023-06-06T05:42:07.752Z,16.71
2023-06-06T05:44:36.563Z,16.80
2023-06-06T05:47:06.718Z,16.75
2023-06-06T05:49:34.784Z,16.87
2023-06-06T05:52:03.396Z,16.92
2023-06-06T05:54:41.556Z,16.88
2023-06-06T05:57:22.472Z,17.16
2023-06-06T05:59:50.919Z,17.25
2023-06-06T06:02:21.747Z,17.39
2023-06-06T06:04:55.081Z,17.46
2023-06-06T06:07:23.617Z,17.48
2023-06-06T06:09:52.194Z,17.40
2023-06-06T06:12:20.248Z,17.43
2023-06-06T06:14:48.202Z,17.57
2023-06-06T06:17:16.177Z,17.54
2023-06-06T06:19:45.490Z,17.64
2023-06-06T06:22:13.440Z,17.60
2023-06-06T06:24:41.470Z,17.75
2023-06-06T06:27:09.474Z,17.67
2023-06-06T06:29:37.514Z,17.89
2023-06-06T06:32:06.092Z,18.05
2023-06-06T06:34:35.252Z,18.21
2023-06-06T06:37:05.361Z,18.27
2023-06-06T06:39:33.269Z,18.41
2023-06-06T06:42:01.189Z,18.52
2023-06-06T06:44:29.174Z,18.57
2023-06-06T06:46:57.172Z,18.63
2023-06-06T06:49:25.211Z,18.75
2023-06-06T06:51:53.863Z,18.81
2023-06-06T06:54:25.300Z,18.95
2023-06-06T06:56:54.476Z,19.01
2023-06-06T06:59:22.662Z,19.17
2023-06-06T07:01:50.921Z,19.32
2023-06-06T07:04:19.216Z,19.46
2023-06-06T07:06:47.862Z,19.59
2023-06-06T07:09:16.358Z,19.77
2023-06-06T07:11:45.700Z,19.90
2023-06-06T07:14:13.859Z,19.83
2023-06-06T07:16:43.286Z,19.92
2023-06-06T07:19:11.267Z,19.95
2023-06-06T07:21:39.291Z,20.02
2023-06-06T07:24:08.184Z,19.88
2023-06-06T07:26:36.379Z,19.87
2023-06-06T07:29:05.923Z,19.93
2023-06-06T07:31:34.784Z,20.17
2023-06-06T07:34:03.649Z,20.02
2023-06-06T07:36:32.138Z,20.12
2023-06-06T07:39:00.090Z,20.33
2023-06-06T07:41:30.439Z,20.37
2023-06-06T07:43:58.519Z,20.47
2023-06-06T07:46:27.918Z,20.49
2023-06-06T07:48:55.909Z,20.52
2023-06-06T07:51:23.878Z,20.67
2023-06-06T07:53:52.593Z,20.64
2023-06-06T07:56:21.992Z,20.71
2023-06-06T07:58:53.941Z,20.78
2023-06-06T08:01:22.792Z,20.94
2023-06-06T08:03:52.389Z,20.88
2023-06-06T08:06:20.709Z,20.96
2023-06-06T08:08:49.636Z,20.92
2023-06-06T08:11:18.670Z,20.83
2023-06-06T08:13:46.716Z,20.86
2023-06-06T08:16:14.830Z,20.83
2023-06-06T08:18:42.743Z,20.87
2023-06-06T08:21:12.376Z,20.84
2023-06-06T08:23:40.348Z,20.80
2023-06-06T08:26:08.873Z,20.79
2023-06-06T08:28:37.315Z,21.10
2023-06-06T08:31:05.434Z,21.16
2023-06-06T08:33:33.506Z,21.36
2023-06-06T08:36:04.035Z,21.48
2023-06-06T08:38:33.769Z,21.57
2023-06-06T08:41:03.524Z,21.66
2023-06-06T08:43:37.840Z,21.55
2023-06-06T08:46:06.343Z,21.68
2023-06-06T08:48:36.681Z,21.61
2023-06-06T08:51:06.083Z,21.57
2023-06-06T08:53:35.703Z,21.66
2023-06-06T08:56:04.183Z,21.77
2023-06-06T08:58:33.318Z,21.88
2023-06-06T09:01:03.650Z,22.01
2023-06-06T09:03:35.644Z,22.05
2023-06-06T09:06:06.719Z,22.22
2023-06-06T09:08:36.860Z,22.39
2023-06-06T09:11:04.838Z,22.34
2023-06-06T09:13:33.169Z,22.46
2023-06-06T09:16:01.766Z,22.55
2023-06-06T09:18:30.517Z,22.74
2023-06-06T09:20:59.286Z,22.78
2023-06-06T09:23:31.100Z,22.55
2023-06-06T09:26:01.246Z,22.52
2023-06-06T09:28:39.654Z,22.76
2023-06-06T09:31:24.785Z,22.91
2023-06-06T09:33:54.295Z,23.12
2023-06-06T09:36:24.690Z,23.09
2023-06-06T09:38:52.855Z,23.26
2023-06-06T09:41:22.735Z,23.42
2023-06-06T09:43:52.034Z,23.59
2023-06-06T09:46:20.938Z,23.50
2023-06-06T09:48:58.168Z,23.71
2023-06-06T09:51:26.209Z,23.75
2023-06-06T09:53:54.296Z,23.84
2023-06-06T09:56:25.831Z,23.85
2023-06-06T09:58:59.440Z,23.99
2023-06-06T10:01:33.906Z,24.11
2023-06-06T10:04:04.677Z,24.22
2023-06-06T10:06:35.712Z,24.03
2023-06-06T10:09:05.796Z,24.21
2023-06-06T10:11:36.731Z,24.31
2023-06-06T10:14:06.772Z,24.40
2023-06-06T10:16:37.470Z,24.68
2023-06-06T10:19:06.469Z,24.76
2023-06-06T10:21:34.947Z,24.66
2023-06-06T10:24:03.823Z,24.74
2023-06-06T10:26:45.116Z,24.89
2023-06-06T10:29:19.106Z,25.01
2023-06-06T10:31:54.472Z,24.97
2023-06-06T10:34:25.969Z,25.08
2023-06-06T10:36:55.952Z,25.12
2023-06-06T10:39:25.287Z,25.35
2023-06-06T10:41:56.276Z,25.56
2023-06-06T10:44:28.980Z,25.62
2023-06-06T10:47:29.807Z,25.43
2023-06-06T10:50:24.261Z,25.45
2023-06-06T10:52:53.943Z,25.77
2023-06-06T10:55:46.463Z,26.05
2023-06-06T10:58:28.996Z,26.39
2023-06-06T11:01:04.427Z,26.47
2023-06-06T11:03:38.144Z,26.78
2023-06-06T11:06:12.943Z,27.08
2023-06-06T11:08:44.327Z,27.44
2023-06-06T11:11:27.874Z,27.63
2023-06-06T11:14:04.753Z,27.98
2023-06-06T11:16:59.181Z,28.10
2023-06-06T11:19:38.726Z,28.65
2023-06-06T11:22:07.727Z,29.13
2023-06-06T11:24:38.546Z,29.08
2023-06-06T11:27:08.358Z,29.08
2023-06-06T11:29:38.827Z,29.35
2023-06-06T11:32:12.049Z,29.25
2023-06-06T11:34:40.784Z,29.64
2023-06-06T11:37:09.809Z,29.95
2023-06-06T11:39:38.297Z,30.23
2023-06-06T11:42:06.995Z,29.99
2023-06-06T11:44:38.612Z,30.04
2023-06-06T11:47:10.672Z,30.13
2023-06-06T11:49:46.882Z,29.95
2023-06-06T11:52:16.740Z,30.18
2023-06-06T11:55:05.874Z,29.58
2023-06-06T11:57:35.011Z,29.08
2023-06-06T12:00:16.557Z,28.29
2023-06-06T12:02:49.959Z,27.55
2023-06-06T12:05:22.327Z,27.57
2023-06-06T12:07:52.033Z,27.30
2023-06-06T12:10:28.372Z,26.82
2023-06-06T12:12:57.024Z,26.73
2023-06-06T12:15:28.994Z,26.45
2023-06-06T12:18:03.644Z,26.24
2023-06-06T12:20:32.020Z,26.37
2023-06-06T12:22:59.961Z,26.35
2023-06-06T12:25:29.042Z,26.69
2023-06-06T12:28:08.869Z,26.78
2023-06-06T12:30:40.295Z,26.59
2023-06-06T12:33:08.466Z,26.64
2023-06-06T12:35:36.477Z,26.92
2023-06-06T12:38:06.172Z,27.26
2023-06-06T12:40:36.162Z,27.73
2023-06-06T12:43:06.281Z,28.44
2023-06-06T12:45:37.410Z,28.86
2023-06-06T12:48:07.607Z,29.50
2023-06-06T12:50:35.844Z,29.71
2023-06-06T12:53:04.519Z,29.70
2023-06-06T12:55:32.800Z,30.24
2023-06-06T12:58:00.833Z,30.53
2023-06-06T13:00:29.354Z,30.68
2023-06-06T13:03:00.177Z,30.44
2023-06-06T13:05:29.595Z,30.51
2023-06-06T13:07:57.831Z,30.81
2023-06-06T13:10:26.090Z,30.85
2023-06-06T13:12:54.376Z,31.04
2023-06-06T13:15:22.569Z,30.94
2023-06-06T13:17:50.575Z,30.79
2023-06-06T13:20:19.921Z,30.58
2023-06-06T13:22:50.093Z,30.73
2023-06-06T13:25:19.414Z,30.59
2023-06-06T13:27:47.403Z,31.02
2023-06-06T13:30:15.905Z,30.71
2023-06-06T13:32:43.997Z,31.21
2023-06-06T13:35:12.856Z,31.01
2023-06-06T13:37:40.896Z,30.61
2023-06-06T13:40:11.266Z,30.69
2023-06-06T13:42:39.301Z,30.42
2023-06-06T13:45:09.357Z,29.78
2023-06-06T13:47:37.682Z,29.64
2023-06-06T13:50:06.472Z,28.52
2023-06-06T13:52:36.042Z,28.42
2023-06-06T13:55:05.244Z,28.05
2023-06-06T13:57:41.934Z,27.93
2023-06-06T14:00:12.965Z,27.83
2023-06-06T14:02:41.287Z,28.28
2023-06-06T14:05:09.908Z,28.44
2023-06-06T14:07:37.946Z,28.57
2023-06-06T14:10:07.848Z,28.46
2023-06-06T14:12:38.822Z,28.73
2023-06-06T14:15:09.420Z,28.72
2023-06-06T14:17:37.617Z,28.32
2023-06-06T14:20:13.388Z,28.63
2023-06-06T14:22:42.161Z,28.43
2023-06-06T14:25:10.526Z,28.30
2023-06-06T14:27:40.751Z,27.73
2023-06-06T14:30:10.225Z,27.12
2023-06-06T14:35:08.832Z,25.85
2023-06-06T14:37:36.858Z,25.55
2023-06-06T14:40:07.600Z,25.45
2023-06-06T14:42:36.205Z,25.44
2023-06-06T14:45:06.555Z,25.28
2023-06-06T14:47:34.637Z,24.96
2023-06-06T14:50:02.654Z,24.69
2023-06-06T14:52:30.785Z,24.57
2023-06-06T14:54:59.399Z,24.60
2023-06-06T14:57:28.190Z,24.46
2023-06-06T14:59:57.049Z,24.39
2023-06-06T15:02:27.235Z,24.42
2023-06-06T15:04:55.457Z,24.39
2023-06-06T15:07:23.859Z,24.45
2023-06-06T15:09:51.759Z,24.43
2023-06-06T15:12:20.365Z,24.14
2023-06-06T15:14:48.493Z,24.05
2023-06-06T15:17:16.622Z,23.94
2023-06-06T15:19:47.721Z,23.72
2023-06-06T15:22:16.636Z,23.58
2023-06-06T15:24:45.332Z,23.54
2023-06-06T15:27:13.793Z,23.51
2023-06-06T15:29:45.046Z,23.27
2023-06-06T15:32:13.293Z,23.28
2023-06-06T15:34:42.122Z,23.16
2023-06-06T15:37:11.675Z,23.26
2023-06-06T15:39:45.257Z,23.24
2023-06-06T15:42:16.541Z,23.25
2023-06-06T15:44:44.468Z,22.95
2023-06-06T15:47:12.750Z,22.83
2023-06-06T15:49:40.922Z,22.86
2023-06-06T15:52:09.080Z,22.85
2023-06-06T15:54:38.376Z,22.64
2023-06-06T15:57:07.189Z,22.73
2023-06-06T15:59:37.826Z,22.65
2023-06-06T16:02:07.886Z,22.66
2023-06-06T16:04:37.296Z,22.71
2023-06-06T16:07:05.796Z,22.66
2023-06-06T16:09:36.000Z,22.69
2023-06-06T16:12:06.153Z,22.55
2023-06-06T16:14:34.321Z,22.45
2023-06-06T16:17:02.301Z,22.55
2023-06-06T16:19:30.598Z,22.46
2023-06-06T16:22:01.825Z,22.49
2023-06-06T16:24:29.730Z,22.58
2023-06-06T16:26:57.710Z,22.55
2023-06-06T16:29:27.982Z,22.46
2023-06-06T16:31:56.094Z,22.62
2023-06-06T16:34:24.121Z,22.52
2023-06-06T16:37:03.406Z,22.40
2023-06-06T16:39:31.344Z,22.34
2023-06-06T16:41:59.307Z,22.42
2023-06-06T16:44:29.033Z,22.36
2023-06-06T16:46:57.180Z,22.44
2023-06-06T16:49:25.238Z,22.70
2023-06-06T16:51:53.210Z,22.79
2023-06-06T16:54:22.600Z,22.77
2023-06-06T16:56:50.778Z,22.57
2023-06-06T16:59:18.811Z,22.62
2023-06-06T17:01:48.333Z,22.78
2023-06-06T17:04:16.564Z,22.73
2023-06-06T17:06:44.689Z,22.57
2023-06-06T17:09:13.892Z,22.24
2023-06-06T17:11:42.128Z,22.29
2023-06-06T17:14:10.586Z,22.24
2023-06-06T17:16:38.990Z,21.88
2023-06-06T17:19:08.488Z,21.99
2023-06-06T17:21:36.436Z,22.01
2023-06-06T17:24:04.870Z,21.70
2023-06-06T17:26:32.866Z,21.81
2023-06-06T17:29:00.867Z,21.80
2023-06-06T17:31:30.314Z,21.78
2023-06-06T17:33:58.502Z,21.75
2023-06-06T17:36:27.903Z,21.68
2023-06-06T17:38:56.306Z,21.65
2023-06-06T17:41:24.356Z,21.61
2023-06-06T17:43:52.509Z,21.67
2023-06-06T17:46:20.574Z,21.62
2023-06-06T17:48:51.674Z,21.51
2023-06-06T17:51:20.016Z,21.53
2023-06-06T17:53:49.368Z,21.51
2023-06-06T17:56:17.497Z,21.41
2023-06-06T17:58:45.823Z,21.35
2023-06-06T18:01:13.846Z,21.41
2023-06-06T18:03:41.978Z,21.29
2023-06-06T18:06:09.929Z,21.34
2023-06-06T18:08:39.994Z,21.23
2023-06-06T18:11:09.589Z,21.19
2023-06-06T18:13:37.498Z,21.02
2023-06-06T18:16:06.033Z,21.13
2023-06-06T18:18:34.324Z,20.97
2023-06-06T18:21:02.319Z,20.99
2023-06-06T18:23:30.330Z,20.95
2023-06-06T18:25:58.357Z,20.99
2023-06-06T18:28:27.702Z,20.98
2023-06-06T18:30:55.897Z,20.93
2023-06-06T18:33:24.394Z,20.85
2023-06-06T18:35:52.475Z,20.76
2023-06-06T18:38:23.176Z,20.80
2023-06-06T18:40:52.184Z,20.68
2023-06-06T18:43:20.270Z,20.57
2023-06-06T18:45:50.200Z,20.54
2023-06-06T18:48:18.607Z,20.49
2023-06-06T18:50:48.777Z,20.55
2023-06-06T18:53:16.890Z,20.58
2023-06-06T18:55:44.955Z,20.45
2023-06-06T18:58:14.206Z,20.47
2023-06-06T19:00:42.356Z,20.36
2023-06-06T19:03:11.964Z,20.46
2023-06-06T19:05:40.102Z,20.41
2023-06-06T19:08:08.178Z,20.20
2023-06-06T19:10:36.126Z,20.16
2023-06-06T19:13:04.438Z,20.35
2023-06-06T19:15:33.594Z,20.38
2023-06-06T19:18:01.713Z,20.37
2023-06-06T19:20:31.547Z,20.35
2023-06-06T19:22:59.598Z,20.32
2023-06-06T19:25:28.847Z,20.27
2023-06-06T19:27:56.827Z,20.22
2023-06-06T19:30:24.892Z,20.08
2023-06-06T19:32:52.934Z,20.04
2023-06-06T19:35:22.020Z,20.00
2023-06-06T19:37:51.408Z,19.78
2023-06-06T19:40:21.659Z,19.80
2023-06-06T19:42:49.851Z,19.97
2023-06-06T19:45:18.303Z,19.73
2023-06-06T19:47:49.898Z,19.87
2023-06-06T19:50:18.219Z,19.75
2023-06-06T19:52:46.239Z,19.56
2023-06-06T19:55:15.586Z,19.66
2023-06-06T19:57:44.992Z,19.57
2023-06-06T20:00:14.364Z,19.42
2023-06-06T20:02:43.132Z,19.43
2023-06-06T20:05:13.060Z,19.38
2023-06-06T20:07:42.343Z,19.28
2023-06-06T20:10:12.348Z,19.16
2023-06-06T20:12:42.135Z,19.15
2023-06-06T20:15:11.371Z,19.01
2023-06-06T20:17:40.383Z,19.05
2023-06-06T20:20:11.143Z,19.01
2023-06-06T20:22:39.581Z,18.92
2023-06-06T20:25:08.852Z,18.87
2023-06-06T20:27:36.844Z,18.80
2023-06-06T20:30:07.872Z,18.84
2023-06-06T20:32:36.171Z,18.84
2023-06-06T20:35:05.060Z,18.76
2023-06-06T20:37:39.270Z,18.73
2023-06-06T20:40:22.652Z,18.79
2023-06-06T20:42:51.416Z,18.64
2023-06-06T20:45:20.964Z,18.61
2023-06-06T20:47:49.696Z,18.58
2023-06-06T20:50:17.950Z,18.54
2023-06-06T20:52:45.963Z,18.45
2023-06-06T20:55:14.066Z,18.38
2023-06-06T20:57:42.093Z,18.44
2023-06-06T21:00:12.362Z,18.42
2023-06-06T21:02:42.087Z,18.17
2023-06-06T21:05:10.731Z,18.33
2023-06-06T21:07:39.287Z,18.33
2023-06-06T21:10:08.966Z,18.35
2023-06-06T21:12:37.739Z,18.34
2023-06-06T21:15:07.224Z,18.29
2023-06-06T21:17:35.372Z,18.28
2023-06-06T21:20:06.492Z,18.32
2023-06-06T21:22:34.801Z,18.30
2023-06-06T21:25:04.168Z,18.39
2023-06-06T21:27:32.253Z,18.43
2023-06-06T21:30:00.885Z,18.40
2023-06-06T21:32:29.226Z,18.37
2023-06-06T21:34:57.550Z,18.38
2023-06-06T21:37:28.851Z,18.28
2023-06-06T21:39:57.290Z,18.19
2023-06-06T21:42:28.340Z,18.26
2023-06-06T21:44:58.028Z,18.22
2023-06-06T21:47:26.078Z,18.21
2023-06-06T21:49:54.058Z,18.22
2023-06-06T21:52:22.084Z,18.25
2023-06-06T21:54:51.375Z,18.23
2023-06-06T21:57:19.341Z,18.27
2023-06-06T21:59:48.783Z,18.23
2023-06-06T22:02:18.208Z,18.20
2023-06-06T22:04:48.815Z,18.16
2023-06-06T22:07:16.743Z,18.15
2023-06-06T22:09:44.713Z,18.06
2023-06-06T22:12:14.215Z,18.09
2023-06-06T22:14:42.898Z,18.14
2023-06-06T22:17:10.983Z,18.14
2023-06-06T22:19:39.044Z,18.10
2023-06-06T22:22:07.398Z,17.93
2023-06-06T22:24:35.996Z,17.96
2023-06-06T22:27:04.249Z,17.89
2023-06-06T22:29:33.597Z,17.89
2023-06-06T22:32:01.606Z,17.88
2023-06-06T22:34:29.594Z,17.90
2023-06-06T22:36:57.582Z,17.89
2023-06-06T22:39:25.944Z,17.80
2023-06-06T22:41:53.905Z,17.90
2023-06-06T22:44:21.925Z,17.88
2023-06-06T22:46:51.480Z,17.89
2023-06-06T22:49:19.582Z,17.90
2023-06-06T22:51:47.588Z,17.84
2023-06-06T22:54:15.703Z,17.81
2023-06-06T22:56:43.736Z,17.83
2023-06-06T22:59:11.740Z,17.81
2023-06-06T23:01:39.721Z,17.85
2023-06-06T23:04:09.168Z,17.89
2023-06-06T23:06:37.960Z,17.82
2023-06-06T23:09:06.350Z,17.88
2023-06-06T23:11:34.342Z,17.87
2023-06-06T23:14:02.302Z,17.87
2023-06-06T23:16:30.338Z,17.73
2023-06-06T23:18:58.468Z,17.74
2023-06-06T23:21:29.007Z,17.72
2023-06-06T23:23:57.755Z,17.74
2023-06-06T23:26:26.249Z,17.76
2023-06-06T23:28:54.370Z,17.80
2023-06-06T23:31:22.357Z,17.80
2023-06-06T23:33:50.470Z,17.81
2023-06-06T23:36:18.686Z,17.81
2023-06-06T23:38:48.123Z,17.67
2023-06-06T23:41:16.123Z,17.65
2023-06-06T23:43:44.046Z,17.71
2023-06-06T23:46:12.004Z,17.68
2023-06-06T23:48:40.593Z,17.58
2023-06-06T23:51:08.587Z,17.47
2023-06-06T23:53:36.496Z,17.42
2023-06-06T23:56:06.017Z,17.40
2023-06-06T23:58:33.939Z,17.48
